Ana Sayfa
METAR-TAF:

METAR-TAF

Havaalanları :

Piggs Peak, Svaziland

Enlem: 25-58-04S, Boylam: 31-15-03E, yükseklik: 1099 m

Güncel hava durumu gözlemi

Rapor saat 22:00 UTC de 2 saat ve 0 dakika önce yapıldı.
Rüzgar kuzeydoğudan 4 kt
Sıcaklık 18°C
Nem 94%
Basınç 1021 hPa

METAR: FDPP 272200Z AUTO 05004KT //// // ////// 18/17 Q1021

Saat: 02:00 (00:00 UTC)


TAF: eksik

4.000'den fazla havaalanı için hava durumu gözlemleri ve tahminleri (METAR ve TAF raporları).

Kullanılabilir istasyonlar harita üzerinde sarı ve kırmızı noktalarla gösterilir.

İstasyonun adını görmek için fareyi noktanın üzerinde gezdirin.

Sonrasında hava gözlem ve tahminlerini görmek için tıklayın.

Haritayı değiştirmek için: yaklaştırmak için siyah artı işaretli yeşil düğmeye ve uzaklaştırmak için de eksi işaretli düğmeye hızla tıklayın; bitişik haritalar için yeşil okları kullanın.


METAR-TAF: